»·PEaware :: N373EB KWHP-KSTS

N373EB :: KWHP-KSTS

FLIGHT INFORMATION

Flight Status: Arrived
Operator: Privately registered:
United States
More flights under this callsign
Pilot: Peder R. (40111)
Aircraft: BEECH AIRCRAFT DEBONAIR BONANZA
(BE33)
More flights by this aircraft type
Origin: KWHP Whiteman
United States
Destination: KSTS Sonoma Co
United States
More flights between these airports :: More routes between these airports
Route: WHITEMAN1 VNY V186 FIM V386 RZS V25 PYE
File this flight plan on PilotEdge
Remarks:
Altitude:
(Current/Filed)
10,000ft
Speed:
(Current/Filed)
155kts
Departed: 16-Aug-23 01:58 PM
Arrived: 16-Aug-23 04:39 PM
Distance/Time
Traveled:
332nm/2:41
Distance/Time
To Go:
Arrived

Flight Plot

Page will automatically refresh every two minutes.

Flight plan parsing failed; only flown route is shown


Map Options




Map Legend


Flown Route
Filed Route
Departure Airport
Arrival Airport
Navaid (VOR, NDB)
Fix

Horizontal Profiles

Position Reports

Time Latitude Longitude Heading Altitude Ground
Speed
16-Aug-23 13:32 34.263275 -118.414202 139 1010ft 0kts
16-Aug-23 13:33 34.263275 -118.414202 139 1010ft 0kts
16-Aug-23 13:34 34.263275 -118.414202 139 1010ft 0kts
16-Aug-23 13:35 34.263275 -118.414202 139 1010ft 0kts
16-Aug-23 13:36 34.263275 -118.414202 139 1010ft 0kts
16-Aug-23 13:37 34.263275 -118.414202 139 1010ft 0kts
16-Aug-23 13:38 34.263275 -118.414202 139 1010ft 0kts
16-Aug-23 13:41 34.263275 -118.414202 139 1010ft 0kts
16-Aug-23 13:42 34.263275 -118.414202 139 1010ft 0kts
16-Aug-23 13:43 34.263275 -118.414202 139 1010ft 0kts
16-Aug-23 13:45 34.263275 -118.414202 139 1010ft 0kts
16-Aug-23 13:46 34.263275 -118.414202 139 1010ft 0kts
16-Aug-23 13:47 34.263275 -118.414202 139 1010ft 0kts
16-Aug-23 13:48 34.262898 -118.414520 245 1007ft 8kts
16-Aug-23 13:49 34.263490 -118.416803 309 1001ft 7kts
16-Aug-23 13:50 34.263552 -118.416976 279 1001ft 0kts
16-Aug-23 13:51 34.263552 -118.416976 279 1001ft 0kts
16-Aug-23 13:52 34.263656 -118.417398 303 1000ft 0kts
16-Aug-23 13:53 34.263660 -118.417406 303 1000ft 0kts
16-Aug-23 13:54 34.263660 -118.417406 303 1000ft 0kts
16-Aug-23 13:55 34.263660 -118.417406 303 1000ft 0kts
16-Aug-23 13:56 34.263660 -118.417406 303 1000ft 0kts
16-Aug-23 13:57 34.257585 -118.411796 139 1114ft 77kts
16-Aug-23 13:58 34.237202 -118.398711 203 2020ft 96kts
16-Aug-23 13:59 34.228449 -118.431442 247 2799ft 106kts
16-Aug-23 14:00 34.225550 -118.470191 260 3515ft 117kts
16-Aug-23 14:01 34.238031 -118.503576 348 4263ft 122kts
16-Aug-23 14:02 34.268535 -118.520045 285 4956ft 130kts
16-Aug-23 14:03 34.249301 -118.536055 130 5659ft 98kts
16-Aug-23 14:04 34.263915 -118.512747 349 6286ft 130kts
16-Aug-23 14:05 34.280920 -118.550734 278 6906ft 136kts
16-Aug-23 14:06 34.291477 -118.596897 281 7455ft 140kts
16-Aug-23 14:07 34.301906 -118.643165 282 8006ft 141kts
16-Aug-23 14:08 34.312709 -118.689128 279 8520ft 141kts
16-Aug-23 14:09 34.323463 -118.735254 281 9007ft 141kts
16-Aug-23 14:10 34.334034 -118.781620 279 9475ft 141kts
16-Aug-23 14:11 34.345410 -118.828164 278 9908ft 143kts
16-Aug-23 14:12 34.355770 -118.878908 280 9999ft 165kts
16-Aug-23 14:13 34.366377 -118.936207 277 10004ft 174kts
16-Aug-23 14:14 34.376520 -118.995448 281 9938ft 179kts
16-Aug-23 14:15 34.385390 -119.054175 284 10071ft 167kts
16-Aug-23 14:16 34.395916 -119.110226 286 10009ft 169kts
16-Aug-23 14:17 34.406956 -119.166214 287 10003ft 169kts
16-Aug-23 14:18 34.416824 -119.222462 287 10009ft 169kts
16-Aug-23 14:19 34.426777 -119.279037 285 10017ft 169kts
16-Aug-23 14:20 34.435910 -119.335595 287 10036ft 168kts
16-Aug-23 14:21 34.445733 -119.392013 286 10055ft 168kts
16-Aug-23 14:22 34.455172 -119.449572 280 9988ft 176kts
16-Aug-23 14:23 34.465077 -119.508217 282 10034ft 174kts
16-Aug-23 14:24 34.475606 -119.566487 280 10047ft 174kts
16-Aug-23 14:25 34.485125 -119.625205 281 10064ft 175kts
16-Aug-23 14:26 34.495552 -119.683552 280 10074ft 175kts
16-Aug-23 14:27 34.505146 -119.742685 280 10045ft 175kts
16-Aug-23 14:28 34.532291 -119.788146 334 9994ft 172kts
16-Aug-23 14:29 34.574127 -119.817595 331 10012ft 170kts
16-Aug-23 14:30 34.615103 -119.848284 333 10029ft 169kts
16-Aug-23 14:31 34.656474 -119.877762 332 10035ft 170kts
16-Aug-23 14:32 34.697538 -119.907604 333 10036ft 170kts
16-Aug-23 14:33 34.739014 -119.937892 332 10021ft 171kts
16-Aug-23 14:34 34.780935 -119.967017 332 10003ft 171kts
16-Aug-23 14:36 34.822002 -119.997600 330 10027ft 170kts
16-Aug-23 14:37 34.862737 -120.027714 330 10058ft 169kts
16-Aug-23 14:38 34.903883 -120.057908 332 10082ft 169kts
16-Aug-23 14:39 34.944558 -120.087518 332 10122ft 168kts
16-Aug-23 14:40 34.987138 -120.116894 331 9977ft 173kts
16-Aug-23 14:41 35.027533 -120.146390 330 10041ft 164kts
16-Aug-23 14:42 35.067278 -120.176601 332 9985ft 163kts
16-Aug-23 14:43 35.105931 -120.205818 333 10016ft 162kts
16-Aug-23 14:44 35.144906 -120.234503 328 10078ft 160kts
16-Aug-23 14:45 35.183945 -120.264096 330 10051ft 161kts
16-Aug-23 14:46 35.223064 -120.293413 335 10034ft 163kts
16-Aug-23 14:47 35.263482 -120.320198 330 10040ft 163kts
16-Aug-23 14:48 35.302559 -120.349489 331 10034ft 163kts
16-Aug-23 14:49 35.342285 -120.378147 329 10024ft 163kts
16-Aug-23 14:50 35.381712 -120.406575 331 10007ft 163kts
16-Aug-23 14:51 35.422445 -120.435814 330 9966ft 167kts
16-Aug-23 14:52 35.462676 -120.465316 332 9974ft 167kts
16-Aug-23 14:53 35.502160 -120.496193 328 10020ft 164kts
16-Aug-23 14:54 35.541163 -120.527418 327 10016ft 166kts
16-Aug-23 14:55 35.580307 -120.558732 328 10036ft 165kts
16-Aug-23 14:56 35.620140 -120.589216 329 10032ft 166kts
16-Aug-23 14:57 35.660154 -120.618488 331 10041ft 166kts
16-Aug-23 14:58 35.698381 -120.652706 323 10021ft 167kts
16-Aug-23 14:59 35.735331 -120.688626 323 9997ft 168kts
16-Aug-23 14:59 35.766566 -120.718284 322 9986ft 167kts
16-Aug-23 15:01 35.809395 -120.760437 321 9984ft 166kts
16-Aug-23 15:02 35.845970 -120.796947 322 9993ft 166kts
16-Aug-23 15:03 35.883029 -120.831699 322 10007ft 166kts
16-Aug-23 15:03 35.914179 -120.860754 321 10018ft 166kts
16-Aug-23 15:04 35.949641 -120.898242 322 10030ft 166kts
16-Aug-23 15:06 35.992904 -120.939160 322 10049ft 166kts
16-Aug-23 15:07 36.030497 -120.973981 320 10010ft 168kts
16-Aug-23 15:08 36.067469 -121.009866 321 10028ft 166kts
16-Aug-23 15:08 36.098038 -121.039206 322 10041ft 165kts
16-Aug-23 15:09 36.133555 -121.076536 321 10055ft 166kts
16-Aug-23 15:10 36.168862 -121.113149 324 10141ft 156kts
16-Aug-23 15:12 36.210605 -121.152302 326 10073ft 158kts
16-Aug-23 15:12 36.239961 -121.180547 325 10058ft 157kts
16-Aug-23 15:13 36.274659 -121.214751 324 10063ft 156kts
16-Aug-23 15:14 36.309145 -121.248780 326 10056ft 156kts
16-Aug-23 15:15 36.344009 -121.282652 323 10026ft 158kts
16-Aug-23 15:16 36.378956 -121.316936 325 9986ft 157kts
16-Aug-23 15:17 36.414000 -121.351001 322 9961ft 156kts
16-Aug-23 15:18 36.448551 -121.385400 326 9966ft 155kts
16-Aug-23 15:19 36.482571 -121.419982 324 9986ft 155kts
16-Aug-23 15:20 36.516349 -121.454799 323 9997ft 155kts
16-Aug-23 15:21 36.550340 -121.489649 323 10011ft 155kts
16-Aug-23 15:22 36.584560 -121.523611 323 10022ft 155kts
16-Aug-23 15:23 36.618858 -121.557657 323 10039ft 155kts
16-Aug-23 15:24 36.652605 -121.592749 323 10032ft 156kts
16-Aug-23 15:25 36.682465 -121.633063 313 10029ft 158kts
16-Aug-23 15:26 36.712101 -121.674736 311 10031ft 157kts
16-Aug-23 15:27 36.740502 -121.717547 313 10018ft 157kts
16-Aug-23 15:28 36.768995 -121.760155 314 10006ft 157kts
16-Aug-23 15:29 36.797678 -121.802460 312 10002ft 157kts
16-Aug-23 15:30 36.826416 -121.845659 313 9993ft 157kts
16-Aug-23 15:31 36.855795 -121.887267 314 9986ft 157kts
16-Aug-23 15:32 36.884064 -121.929582 309 10035ft 155kts
16-Aug-23 15:33 36.912626 -121.971566 315 10033ft 156kts
16-Aug-23 15:34 36.940606 -122.014302 310 10027ft 157kts
16-Aug-23 15:35 36.968649 -122.057073 315 10021ft 157kts
16-Aug-23 15:36 37.006207 -122.084342 340 9993ft 155kts
16-Aug-23 15:37 37.046748 -122.105013 339 9984ft 155kts
16-Aug-23 15:38 37.087246 -122.126958 339 10015ft 154kts
16-Aug-23 15:39 37.127710 -122.148461 340 10015ft 155kts
16-Aug-23 15:40 37.168579 -122.168601 342 10030ft 158kts
16-Aug-23 15:41 37.209875 -122.189229 343 10026ft 158kts
16-Aug-23 15:42 37.251781 -122.208798 340 10019ft 158kts
16-Aug-23 15:43 37.292780 -122.230628 340 10021ft 158kts
16-Aug-23 15:44 37.333946 -122.251332 340 10016ft 158kts
16-Aug-23 15:45 37.374993 -122.272730 343 10021ft 157kts
16-Aug-23 15:46 37.416601 -122.291501 345 10034ft 156kts
16-Aug-23 15:47 37.458572 -122.308228 343 10045ft 156kts
16-Aug-23 15:48 37.500378 -122.324682 346 10053ft 156kts
16-Aug-23 15:49 37.542370 -122.340878 345 10038ft 157kts
16-Aug-23 15:50 37.584661 -122.357675 348 10005ft 157kts
16-Aug-23 15:51 37.622708 -122.383591 304 9958ft 165kts
16-Aug-23 15:52 37.649297 -122.430776 310 9983ft 161kts
16-Aug-23 15:53 37.675900 -122.477453 306 9997ft 161kts
16-Aug-23 15:54 37.701504 -122.525164 306 10021ft 161kts
16-Aug-23 15:55 37.726865 -122.572614 306 10063ft 161kts
16-Aug-23 15:56 37.752302 -122.620814 308 10078ft 161kts
16-Aug-23 15:57 37.778799 -122.668163 307 10039ft 163kts
16-Aug-23 15:58 37.804452 -122.716674 305 10002ft 164kts
16-Aug-23 15:59 37.834435 -122.757464 344 9969ft 159kts
16-Aug-23 16:00 37.877690 -122.774084 353 9893ft 158kts
16-Aug-23 16:01 37.921857 -122.781509 350 9161ft 160kts
16-Aug-23 16:02 37.965504 -122.790844 353 8308ft 154kts
16-Aug-23 16:03 38.008256 -122.800058 353 7398ft 152kts
16-Aug-23 16:04 38.049863 -122.810046 352 6519ft 149kts
16-Aug-23 16:05 38.091567 -122.818970 354 6045ft 152kts
16-Aug-23 16:06 38.134454 -122.827447 352 5985ft 157kts
16-Aug-23 16:07 38.178400 -122.837114 354 5994ft 160kts
16-Aug-23 16:08 38.223311 -122.846794 353 6017ft 163kts
16-Aug-23 16:09 38.269029 -122.856527 352 6034ft 166kts
16-Aug-23 16:10 38.315220 -122.865515 353 6031ft 168kts
16-Aug-23 16:11 38.362134 -122.875373 353 6022ft 168kts
16-Aug-23 16:12 38.408457 -122.885713 353 6012ft 168kts
16-Aug-23 16:13 38.455449 -122.895645 353 6017ft 168kts
16-Aug-23 16:14 38.501896 -122.905735 353 6017ft 168kts
16-Aug-23 16:15 38.548245 -122.915604 352 6022ft 167kts
16-Aug-23 16:16 38.594714 -122.925819 354 6027ft 167kts
16-Aug-23 16:17 38.640252 -122.935038 354 6008ft 154kts
16-Aug-23 16:18 38.678896 -122.943350 353 6036ft 128kts
16-Aug-23 16:19 38.713513 -122.951222 350 6041ft 123kts
16-Aug-23 16:20 38.747606 -122.958099 352 6000ft 123kts
16-Aug-23 16:21 38.782007 -122.964934 357 5799ft 125kts
16-Aug-23 16:22 38.813136 -122.985168 323 5433ft 128kts
16-Aug-23 16:23 38.842614 -123.011491 328 5082ft 127kts
16-Aug-23 16:24 38.857809 -122.992226 143 5029ft 107kts
16-Aug-23 16:25 38.829319 -122.978066 167 4976ft 108kts
16-Aug-23 16:26 38.799912 -122.970361 167 4922ft 108kts
16-Aug-23 16:27 38.770975 -122.964416 168 5051ft 105kts
16-Aug-23 16:28 38.741319 -122.958692 166 4763ft 107kts
16-Aug-23 16:29 38.710375 -122.952604 168 4277ft 120kts
16-Aug-23 16:30 38.674124 -122.945351 173 3545ft 134kts
16-Aug-23 16:31 38.643653 -122.932589 145 3181ft 96kts
16-Aug-23 16:32 38.620578 -122.912941 143 2798ft 99kts
16-Aug-23 16:33 38.598804 -122.891196 142 2333ft 99kts
16-Aug-23 16:34 38.578247 -122.867545 124 1695ft 98kts
16-Aug-23 16:35 38.562887 -122.839048 141 1222ft 94kts
16-Aug-23 16:36 38.542829 -122.827307 158 830ft 70kts
16-Aug-23 16:37 38.525625 -122.818127 156 414ft 58kts
16-Aug-23 16:38 38.512301 -122.810919 158 112ft 27kts
16-Aug-23 16:39 38.511005 -122.808887 88 113ft 7kts
16-Aug-23 16:40 38.511850 -122.807259 11 111ft 1kts

Navigation Log

Ident Type
Flight plan parsing failed, navigation log unavailable